Latest Weather Observations for Maria Island

IDT60801

Issued at 3:35 am EDT Friday 31 October 2014 (issued every 30 minutes, with the page automatically refreshed every 10 minutes)

About weather observations | Map of weather stations | Latest weather observations for TAS | Other Formats
Station Details ID: 092124 Name: MARIA ISLAND (POINT LESUEUR) Lat: -42.66 Lon: 148.02 Height: 28.0 m
Data from the previous 72 hours. | See also: Recent months at Maria Island
Date/Time
EDT
Temp
°C
App
Temp
°C
Dew
Point
Rel
Hum
%
Delta-T
°C
Wind Press
QNH
hPa
Press
MSL
hPa
Rain
since 9 am
mm
Dir
 
Spd
km/h
Gust
km/h
Spd
kts
Gust
kts
31/03:30am 11.1 10.0 9.9 92 0.6 N 6 9 3 5 1006.5 1006.5 2.6
31/03:00am 11.1 8.3 10.0 93 0.6 NNW 15 20 8 11 1006.7 1006.7 2.6
31/02:30am 11.5 8.9 10.6 94 0.5 NNW 15 20 8 11 1006.8 1006.8 2.6
31/02:00am 11.0 8.9 9.9 93 0.6 NNW 11 15 6 8 1007.0 1007.0 2.6
31/01:30am 11.9 8.3 10.6 92 0.7 N 20 28 11 15 1007.6 1007.6 2.6
31/01:00am 12.0 8.4 10.6 91 0.7 N 20 24 11 13 1007.7 1007.7 2.6
31/12:30am 11.9 8.3 10.6 92 0.7 N 20 24 11 13 1008.1 1008.1 2.6
31/12:00am 11.9 8.5 10.5 91 0.7 N 19 24 10 13 1008.3 1008.3 2.6
 
Date/Time
EDT
Temp
°C
App
Temp
°C
Dew
Point
Rel
Hum
%
Delta-T
°C
Wind Press
QNH
hPa
Press
MSL
hPa
Rain
since 9 am
mm
Dir
 
Spd
km/h
Gust
km/h
Spd
kts
Gust
kts
30/11:30pm 11.9 8.2 10.3 90 0.8 N 20 24 11 13 1008.4 1008.4 2.6
30/11:00pm 11.9 8.7 9.8 87 1.1 N 17 20 9 11 1008.6 1008.6 2.6
30/10:30pm 11.6 8.0 9.7 88 1.0 N 19 24 10 13 1008.8 1008.8 2.6
30/10:00pm 11.9 8.0 9.6 86 1.2 N 20 26 11 14 1008.9 1008.9 2.6
30/09:30pm 11.6 7.3 9.5 87 1.1 N 22 30 12 16 1008.8 1008.8 2.6
30/09:00pm 11.9 7.0 9.8 87 1.1 N 26 30 14 16 1008.7 1008.7 2.6
30/08:30pm 11.8 7.6 9.7 87 1.1 N 22 28 12 15 1008.6 1008.6 2.6
30/08:00pm 11.8 7.2 9.5 86 1.2 N 24 28 13 15 1008.3 1008.3 2.6
30/07:30pm 12.3 8.5 9.7 84 1.3 N 20 24 11 13 1008.2 1008.2 2.6
30/07:00pm 12.5 11.8 10.0 85 1.3 N 4 7 2 4 1008.2 1008.2 2.6
30/06:30pm 12.2 10.8 9.6 84 1.3 ENE 7 11 4 6 1007.9 1007.9 2.6
30/06:00pm 12.0 10.1 9.0 82 1.5 E 9 15 5 8 1007.8 1007.8 2.6
30/05:30pm 12.2 10.1 9.6 84 1.3 E 11 15 6 8 1007.8 1007.8 2.6
30/05:00pm 12.3 9.8 9.7 84 1.3 E 13 17 7 9 1007.8 1007.8 2.6
30/04:30pm 11.8 9.3 9.7 87 1.1 ENE 13 19 7 10 1007.5 1007.5 2.6
30/04:00pm 11.9 9.5 10.1 89 0.9 E 13 19 7 10 1007.5 1007.5 2.6
30/03:30pm 11.5 8.7 9.9 90 0.8 E 15 20 8 11 1007.4 1007.4 2.4
30/03:00pm 11.5 7.8 9.6 88 1.0 E 19 26 10 14 1007.1 1007.1 1.4
30/02:30pm 12.3 7.8 9.9 85 1.2 E 24 30 13 16 1007.0 1007.0 0.6
30/02:00pm 11.7 8.5 9.8 88 1.0 E 17 22 9 12 1007.0 1007.0 0.6
30/01:30pm 12.7 8.4 9.5 81 1.6 ESE 22 28 12 15 1007.1 1007.1 0.4
30/01:00pm 14.1 10.3 11.1 82 1.6 ESE 22 28 12 15 1007.1 1007.1 0.4
30/12:30pm 12.5 7.8 10.7 89 0.9 ESE 26 33 14 18 1007.0 1007.0 0.4
30/12:00pm 14.2 9.4 10.2 77 2.1 E 26 32 14 17 1007.1 1007.1 0.0
30/11:30am 14.4 11.1 9.6 73 2.5 E 17 26 9 14 1007.1 1007.1 0.0
30/11:00am 16.4 14.8 7.9 57 4.3 SSW 6 7 3 4 1007.2 1007.2 0.0
30/10:30am 15.3 13.9 7.3 59 4.0 NNW 4 7 2 4 1007.2 1007.2 0.0
30/10:00am 14.7 12.5 7.7 63 3.5 N 9 11 5 6 1007.1 1007.1 0.0
30/09:30am 14.4 10.6 7.7 64 3.3 N 17 19 9 10 1007.1 1007.1 0.0
30/09:00am 14.0 10.7 8.0 67 3.0 N 15 19 8 10 1007.2 1007.2 0.0
30/08:30am 14.7 12.2 8.0 64 3.3 NNW 11 15 6 8 1007.3 1007.3 0.0
30/08:00am 13.9 10.4 7.2 64 3.3 NW 15 19 8 10 1007.2 1007.2 0.0
30/07:30am 13.7 10.9 7.0 64 3.3 NNW 11 15 6 8 1007.2 1007.2 0.0
30/07:00am 12.8 8.3 6.8 67 2.9 NNW 20 28 11 15 1006.4 1006.4 0.0
30/06:30am 12.8 9.0 7.7 71 2.5 NNW 17 20 9 11 1006.5 1006.5 0.0
30/06:00am 12.6 9.4 6.9 68 2.8 NW 13 17 7 9 1006.3 1006.3 0.0
30/05:30am 13.0 9.6 6.1 63 3.3 NW 13 19 7 10 1006.2 1006.2 0.0
30/05:00am 12.9 9.6 6.3 64 3.2 WNW 13 17 7 9 1006.0 1006.0 0.0
30/04:30am 12.9 8.8 6.3 64 3.1 WNW 17 26 9 14 1006.2 1006.2 0.0
30/04:00am 13.3 7.4 5.9 61 3.5 WNW 26 37 14 20 1005.8 1005.8 0.0
30/03:30am 13.2 7.8 6.5 64 3.2 WNW 24 35 13 19 1005.9 1005.9 0.0
30/03:00am 13.5 7.3 6.1 61 3.5 WNW 28 35 15 19 1005.9 1005.9 0.0
30/02:30am 13.6 6.4 6.0 60 3.6 WNW 33 44 18 24 1005.9 1005.9 0.0
30/02:00am 13.7 6.8 6.3 61 3.6 WNW 32 46 17 25 1005.9 1005.9 0.0
30/01:30am 13.7 6.6 6.6 62 3.4 WNW 33 52 18 28 1005.8 1005.8 0.0
30/01:13am 13.9 6.3 5.8 58 3.8 WNW 35 54 19 29 1005.7 1005.7 0.0
30/01:00am 13.8 6.3 6.2 60 3.6 WNW 35 52 19 28 1005.9 1005.9 0.0
30/12:30am 13.9 6.4 6.3 60 3.6 WNW 35 44 19 24 1006.1 1006.1 0.0
30/12:00am 13.8 7.0 6.7 62 3.4 WNW 32 46 17 25 1006.3 1006.3 0.0
 
Date/Time
EDT
Temp
°C
App
Temp
°C
Dew
Point
Rel
Hum
%
Delta-T
°C
Wind Press
QNH
hPa
Press
MSL
hPa
Rain
since 9 am
mm
Dir
 
Spd
km/h
Gust
km/h
Spd
kts
Gust
kts
29/11:30pm 14.1 7.2 6.5 60 3.7 WNW 32 39 17 21 1006.5 1006.5 0.0
29/11:00pm 14.3 8.2 6.4 59 3.8 NW 28 39 15 21 1006.4 1006.4 0.0
29/10:30pm 14.4 9.0 6.5 59 3.8 NW 24 35 13 19 1006.7 1006.7 0.0
29/10:00pm 14.3 8.6 6.9 61 3.6 WNW 26 32 14 17 1006.9 1006.9 0.0
29/09:30pm 14.9 8.8 6.5 57 4.1 W 28 39 15 21 1007.0 1007.0 0.0
29/09:00pm 15.0 8.1 6.6 57 4.1 W 32 43 17 23 1006.7 1006.7 0.0
29/08:30pm 15.2 8.8 7.0 58 4.0 W 30 43 16 23 1006.2 1006.2 0.0
29/08:00pm 15.8 10.6 5.7 51 4.9 WNW 22 35 12 19 1006.0 1006.0 0.0
29/07:30pm 16.4 9.6 5.1 47 5.4 WNW 30 46 16 25 1005.8 1005.8 0.0
29/07:15pm 16.7 8.3 5.6 48 5.4 W 39 63 21 34 1005.7 1005.7 0.0
29/07:00pm 17.2 10.2 6.1 48 5.4 W 32 41 17 22 1005.8 1005.8 0.0
29/06:40pm 17.6 10.6 6.2 47 5.6 WNW 32 50 17 27 1005.3 1005.3 0.0
29/06:30pm 17.7 10.6 6.6 48 5.5 W 33 46 18 25 1005.3 1005.3 0.0
29/06:13pm 17.6 8.9 5.9 46 5.7 W 41 61 22 33 1005.2 1005.2 0.0
29/06:00pm 17.3 7.2 5.6 46 5.7 W 48 61 26 33 1005.1 1005.1 0.0
29/05:33pm 18.7 11.6 5.5 42 6.4 W 32 50 17 27 1005.1 1005.1 0.0
29/05:30pm 18.8 12.3 6.6 45 6.1 W 30 41 16 22 1005.3 1005.3 0.0
29/05:00pm 19.1 13.8 6.9 45 6.2 W 24 41 13 22 1005.2 1005.2 0.0
29/04:30pm 18.9 13.7 5.7 42 6.5 W 22 33 12 18 1005.4 1005.4 0.0
29/04:00pm 18.7 11.9 5.2 41 6.6 WNW 30 37 16 20 1005.2 1005.2 0.0
29/03:30pm 18.5 9.5 6.4 45 6.0 WNW 43 54 23 29 1005.0 1005.0 0.0
29/03:18pm 19.1 11.4 6.9 45 6.1 WNW 37 56 20 30 1005.4 1005.4 0.0
29/03:00pm 18.8 11.1 6.9 46 6.0 WNW 37 52 20 28 1005.7 1005.7 0.0
29/02:30pm 18.6 11.3 7.4 48 5.7 WNW 35 52 19 28 1006.1 1006.1 0.0
29/02:21pm 18.4 11.8 5.9 44 6.1 WNW 30 50 16 27 1006.0 1006.0 0.0
29/02:00pm 18.5 11.7 6.7 46 5.9 WNW 32 48 17 26 1006.8 1006.8 0.0
29/01:54pm 18.0 11.9 6.5 47 5.7 NW 28 48 15 26 1006.9 1006.9 0.0
29/01:30pm 17.2 10.6 6.1 48 5.4 W 30 39 16 21 1007.3 1007.3 0.0
29/01:05pm 16.6 9.0 5.9 49 5.2 WNW 35 56 19 30 1007.2 1007.2 0.0
29/01:00pm 17.1 10.1 6.0 48 5.4 WNW 32 43 17 23 1007.4 1007.4 0.0
29/12:30pm 16.4 9.5 6.5 52 4.9 WNW 32 50 17 27 1007.6 1007.6 0.0
29/12:01pm 15.8 8.9 7.1 56 4.3 WNW 33 52 18 28 1008.0 1008.0 0.0
29/12:00pm 15.9 8.6 7.4 57 4.2 W 35 54 19 29 1008.0 1008.0 0.0
29/11:51am 16.3 9.1 5.9 50 5.0 WNW 33 54 18 29 1007.9 1007.9 0.0
29/11:49am 16.6 10.3 7.3 54 4.6 WNW 30 41 16 22 1008.1 1008.1 0.0
29/11:30am 15.2 10.8 6.7 57 4.1 NW 19 20 10 11 1008.6 1008.6 0.0
29/11:00am 14.6 9.2 6.2 57 4.0 WNW 24 32 13 17 1008.9 1008.9 0.0
29/10:30am 13.9 7.6 5.5 57 4.0 WNW 28 39 15 21 1009.4 1009.4 0.0
29/10:14am 14.1 7.9 6.0 58 3.9 WNW 28 37 15 20 1009.4 1009.4 0.0
29/10:00am 13.1 9.6 5.3 59 3.6 NW 13 19 7 10 1009.6 1009.6 0.0
29/09:30am 13.4 7.5 5.8 60 3.6 NW 26 35 14 19 1009.3 1009.3 0.0
29/09:00am 12.5 6.4 4.7 59 3.6 WNW 26 33 14 18 1009.5 1009.5 0.4
29/08:30am 11.3 6.7 3.8 60 3.3 NNW 17 26 9 14 1009.6 1009.6 0.4
29/08:00am 10.3 5.2 3.1 61 3.1 NNW 19 24 10 13 1009.6 1009.6 0.4
29/07:30am 9.8 4.2 3.5 65 2.7 N 22 28 12 15 1009.6 1009.6 0.4
29/07:00am 9.3 3.5 2.4 62 2.9 NNW 22 26 12 14 1009.6 1009.6 0.4
29/06:30am 8.9 3.9 1.6 60 3.0 WNW 17 22 9 12 1009.4 1009.4 0.4
29/06:00am 8.6 3.3 1.7 62 2.9 NW 19 22 10 12 1009.0 1009.0 0.4
29/05:30am 8.3 4.4 1.0 60 3.0 WNW 11 13 6 7 1008.8 1008.8 0.4
29/05:00am 8.6 5.5 0.1 55 3.4 NW 6 9 3 5 1008.4 1008.4 0.4
29/04:30am 8.3 4.7 0.8 59 3.0 NW 9 11 5 6 1008.4 1008.4 0.4
29/04:00am 8.8 3.9 -0.8 51 3.8 WSW 15 22 8 12 1007.5 1007.5 0.4
29/03:30am 8.9 3.0 -2.1 46 4.2 SSW 19 22 10 12 1007.3 1007.3 0.4
29/03:00am 8.8 4.1 -1.9 47 4.1 W 13 19 7 10 1007.2 1007.2 0.4
29/02:30am 9.2 2.1 -1.5 47 4.1 SW 26 35 14 19 1006.6 1006.6 0.4
29/02:00am 9.3 1.2 -0.3 51 3.8 SW 32 44 17 24 1006.4 1006.4 0.4
29/01:30am 9.1 1.0 -0.5 51 3.8 SW 32 44 17 24 1006.1 1006.1 0.4
29/01:17am 9.2 1.1 -0.4 51 3.8 SW 32 44 17 24 1005.9 1005.9 0.4
29/01:00am 9.0 3.4 0.2 54 3.5 SSW 19 26 10 14 1006.1 1006.1 0.4
29/12:30am 9.1 5.1 0.3 54 3.5 WSW 11 19 6 10 1005.8 1005.8 0.4
29/12:00am 9.4 0.8 0.3 53 3.7 WSW 35 44 19 24 1005.0 1005.0 0.4
 
Date/Time
EDT
Temp
°C
App
Temp
°C
Dew
Point
Rel
Hum
%
Delta-T
°C
Wind Press
QNH
hPa
Press
MSL
hPa
Rain
since 9 am
mm
Dir
 
Spd
km/h
Gust
km/h
Spd
kts
Gust
kts
28/11:30pm 9.4 0.1 0.6 54 3.6 WSW 39 67 21 36 1004.4 1004.4 0.4
28/11:29pm 9.4 0.5 0.6 54 3.6 WSW 37 67 20 36 1004.4 1004.4 0.4
28/11:00pm 9.3 1.4 1.0 56 3.4 WSW 32 44 17 24 1004.2 1004.2 0.4
28/10:30pm 9.4 -0.2 1.3 57 3.3 WSW 41 65 22 35 1003.6 1003.6 0.4
28/10:18pm 9.2 0.5 1.9 60 3.0 WSW 37 56 20 30 1003.7 1003.7 0.4
28/10:00pm 9.0 0.0 2.3 63 2.8 W 39 50 21 27 1003.3 1003.3 0.4
28/09:30pm 8.6 -0.3 3.0 68 2.4 W 39 52 21 28 1002.9 1002.9 0.4
28/09:00pm 8.5 -0.1 2.7 67 2.5 W 37 52 20 28 1002.3 1002.3 0.4
28/08:30pm 9.0 -0.9 2.8 65 2.6 WSW 44 57 24 31 1001.5 1001.5 0.4
28/08:18pm 9.1 -1.3 2.2 62 2.9 WSW 46 65 25 35 1000.9 1000.8 0.4
28/08:00pm 10.0 0.8 1.4 55 3.6 W 39 54 21 29 1000.3 1000.2 0.4
28/07:42pm 9.8 0.2 1.2 55 3.5 W 41 63 22 34 999.9 999.8 0.4
28/07:30pm 9.7 -0.2 1.4 56 3.4 W 43 54 23 29 999.4 999.3 0.4
28/07:00pm 10.3 -1.7 1.7 55 3.6 W 54 76 29 41 998.0 998.0 0.4
28/06:30pm 10.2 -1.4 1.6 55 3.6 W 52 70 28 38 997.8 997.8 0.4
28/06:20pm 10.6 0.6 2.2 56 3.6 W 44 65 24 35 997.4 997.4 0.4
28/06:00pm 10.4 0.9 2.0 56 3.6 W 41 57 22 31 997.2 997.2 0.4
28/05:30pm 11.0 0.2 1.8 53 3.9 W 48 74 26 40 996.5 996.5 0.4
28/05:00pm 11.4 0.2 1.9 52 4.1 W 50 74 27 40 995.9 995.9 0.4
28/04:30pm 10.8 -2.9 1.4 52 3.9 W 63 87 34 47 994.8 994.8 0.4
28/04:00pm 10.9 -0.9 3.0 58 3.5 W 54 85 29 46 994.9 994.9 0.4
28/03:52pm 10.7 0.8 2.8 58 3.4 W 44 74 24 40 995.0 995.0 0.4
28/03:30pm 9.9 -0.6 3.6 65 2.8 W 48 65 26 35 994.9 994.9 0.4
28/03:01pm 11.1 -0.8 2.4 55 3.7 W 54 74 29 40 994.1 994.1 0.4
28/03:00pm 11.1 -0.8 2.2 54 3.8 W 54 72 29 39 994.2 994.2 0.4
28/02:30pm 10.5 -1.9 2.4 57 3.5 W 57 85 31 46 994.1 994.1 0.4
28/02:00pm 9.5 -4.5 2.1 60 3.1 W 65 89 35 48 993.8 993.8 0.4
28/01:30pm 8.5 -2.4 3.8 72 2.0 W 50 76 27 41 994.1 994.1 0.2
28/01:17pm 7.6 -3.6 3.8 77 1.6 W 52 70 28 38 994.9 994.9 0.2
28/01:08pm 8.3 -3.6 4.3 76 1.8 W 56 63 30 34 994.5 994.5 0.2
28/01:00pm 8.4 -7.4 3.5 71 2.1 W 76 102 41 55 993.8 993.8 0.2
28/12:56pm 8.7 -8.0 2.9 67 2.5 W 80 102 43 55 993.1 993.1 0.2
28/12:55pm 10.7 0.3 2.3 56 3.6 W 46 102 25 55 993.6 993.6 0.2
28/12:35pm 10.2 0.3 3.0 61 3.1 W 44 63 24 34 993.8 993.8 0.2
28/12:30pm 9.9 -0.7 3.0 62 3.0 W 48 65 26 35 993.9 993.9 0.2
28/12:16pm 8.7 -2.9 3.9 72 2.1 W 54 74 29 40 993.5 993.5 0.2
28/12:09pm 7.3 -5.7 3.4 76 1.7 W 61 69 33 37 993.4 993.4 0.2
28/12:06pm 8.6 -9.1 2.6 66 2.5 W 85 106 46 57 993.1 993.1 0.2
28/12:05pm 9.2 -0.8 2.3 62 2.9 W 44 93 24 50 993.6 993.6 0.2
28/12:04pm 9.6 0.7 2.9 63 2.9 W 39 74 21 40 994.0 994.0 0.0
28/12:00pm 9.6 2.3 2.7 62 3.0 W 30 56 16 30 993.4 993.4 0.0
28/11:45am 10.7 5.3 2.5 57 3.5 WNW 20 32 11 17 993.1 993.1 0.0
28/11:33am 9.7 0.0 3.0 63 2.9 W 43 63 23 34 993.4 993.4 0.0
28/11:30am 9.9 -0.4 2.5 60 3.2 W 46 63 25 34 993.4 993.4 0.0
28/11:01am 10.9 0.9 2.2 55 3.7 W 44 74 24 40 993.0 993.0 0.0
28/11:00am 10.9 1.2 3.0 58 3.5 W 43 61 23 33 993.1 993.1 0.0
28/10:30am 9.8 -1.4 1.7 57 3.4 W 50 80 27 43 993.3 993.3 0.0
28/10:10am 9.9 -0.4 2.5 60 3.2 W 46 67 25 36 993.1 993.1 0.0
28/10:00am 9.6 -0.5 3.6 66 2.6 W 46 63 25 34 993.6 993.6 0.0
28/09:45am 9.1 -2.1 3.9 70 2.3 W 52 70 28 38 993.3 993.3 0.0
28/09:39am 9.4 0.4 4.6 72 2.1 WSW 41 50 22 27 993.4 993.4 0.0
28/09:33am 10.0 3.1 4.6 69 2.4 W 30 50 16 27 992.8 992.8 0.0
28/09:30am 9.8 3.3 4.6 70 2.3 W 28 39 15 21 992.9 992.9 0.0
28/09:00am 8.3 1.5 4.9 79 1.5 NW 30 35 16 19 992.7 992.7 8.6
28/08:34am 7.8 0.4 4.2 78 1.6 WSW 32 52 17 28 993.4 993.4 8.4
28/08:30am 8.0 1.2 4.9 81 1.4 WSW 30 41 16 22 993.5 993.5 8.2
28/08:00am 9.9 3.3 4.3 68 2.5 NW 28 43 15 23 992.5 992.5 7.6
28/07:30am 9.3 3.9 4.7 73 2.0 NW 22 28 12 15 992.0 992.0 7.6
28/07:00am 8.6 3.6 4.4 75 1.9 NW 20 26 11 14 991.8 991.8 7.6
28/06:30am 8.5 2.3 4.1 74 1.9 W 26 39 14 21 992.2 992.2 7.6
28/06:00am 8.8 2.5 5.7 81 1.4 W 28 39 15 21 992.6 992.6 7.4
28/05:30am 9.3 1.7 5.9 79 1.6 WNW 35 48 19 26 992.2 992.2 7.4
28/05:00am 9.1 2.5 6.2 82 1.4 WNW 30 35 16 19 991.5 991.5 7.4
28/04:30am 8.8 3.8 6.4 85 1.1 W 22 30 12 16 992.2 992.2 6.4
28/04:00am 10.5 3.4 6.3 75 2.0 NNW 33 44 18 24 990.7 990.7 4.0

Other Formats:

Comma delimited format used in spreadsheet applications
http://www.bom.gov.au/fwo/IDT60801/IDT60801.95988.axf

JavaScript Object Notation format (JSON) in row-major order
http://www.bom.gov.au/fwo/IDT60801/IDT60801.95988.json